Time;durP1;ratioP1;P1;durP2;ratioP2;P2;SDS_P1;SDS_P2;PMS_P1;PMS_P2;Temp;Humidity;BMP_temperature;BMP_pressure;BME280_temperature;BME280_humidity;BME280_pressure;Samples;Min_cycle;Max_cycle;Signal;HPM_P1;HPM_P2
2022/07/15 00:00:19;;;;;;;5.47;2.75;;;;;;;;;;5111186;28;20055;-71
2022/07/15 00:02:45;;;;;;;6.88;2.83;;;;;;;;;;5110802;28;20492;-71
2022/07/15 00:05:11;;;;;;;6.82;2.90;;;;;;;;;;5111154;28;20091;-71
2022/07/15 00:08:06;;;;;;;6.75;3.15;;;;;;;;;;5051055;28;20431;-72
2022/07/15 00:10:32;;;;;;;5.32;2.40;;;;;;;;;;5050524;28;20116;-72
2022/07/15 00:14:19;;;;;;;5.18;2.28;;;;;;;;;;5173709;27;20316;-71
2022/07/15 00:32:44;;;;;;;6.30;2.13;;;;;;;;;;5111644;27;20419;-72
2022/07/15 00:35:10;;;;;;;4.38;1.98;;;;;;;;;;5111365;28;20110;-71
2022/07/15 00:38:44;;;;;;;4.85;2.35;;;;;;;;;;5111008;27;20757;-73
2022/07/15 00:42:43;;;;;;;24.40;2.58;;;;;;;;;;5111537;27;20404;-71
2022/07/15 00:45:01;;;;;;;5.55;2.67;;;;;;;;;;5110810;28;20035;-73
2022/07/15 00:47:27;;;;;;;7.55;2.60;;;;;;;;;;5111313;28;20024;-72
2022/07/15 00:51:28;;;;;;;5.25;2.00;;;;;;;;;;5110989;27;20410;-73
2022/07/15 00:55:50;;;;;;;4.53;2.20;;;;;;;;;;5112028;27;20401;-71
2022/07/15 00:59:37;;;;;;;4.40;1.88;;;;;;;;;;5111164;27;20419;-71
2022/07/15 01:02:32;;;;;;;5.00;1.88;;;;;;;;;;5111857;27;20976;-72
2022/07/15 01:07:53;;;;;;;9.57;2.63;;;;;;;;;;5071419;27;20423;-72
2022/07/15 01:12:13;;;;;;;7.30;2.58;;;;;;;;;;5111196;27;20385;-71
2022/07/15 01:15:56;;;;;;;6.38;2.38;;;;;;;;;;5111922;27;20834;-71
2022/07/15 01:19:49;;;;;;;7.05;2.20;;;;;;;;;;5111444;27;20400;-72
2022/07/15 01:22:15;;;;;;;4.25;1.90;;;;;;;;;;5110115;28;20055;-71
2022/07/15 01:25:45;;;;;;;4.50;2.28;;;;;;;;;;5111560;27;20450;-71
2022/07/15 01:29:53;;;;;;;5.93;2.25;;;;;;;;;;5111715;27;20393;-71
2022/07/15 01:32:19;;;;;;;6.05;2.00;;;;;;;;;;5111356;28;20023;-71
2022/07/15 01:34:48;;;;;;;7.50;2.83;;;;;;;;;;5110938;28;20024;-73
2022/07/15 01:37:54;;;;;;;6.25;2.60;;;;;;;;;;5112083;27;20426;-71
2022/07/15 01:42:57;;;;;;;10.50;3.00;;;;;;;;;;5112135;27;20446;-71
2022/07/15 01:45:23;;;;;;;8.45;3.15;;;;;;;;;;5111458;28;20415;-71
2022/07/15 01:47:50;;;;;;;9.43;3.80;;;;;;;;;;5109583;28;20020;-71
2022/07/15 01:50:16;;;;;;;8.75;3.20;;;;;;;;;;5111173;28;20436;-72
2022/07/15 01:53:04;;;;;;;8.13;3.90;;;;;;;;;;5111791;27;20799;-71
2022/07/15 01:57:26;;;;;;;9.77;3.10;;;;;;;;;;5091896;27;20431;-71
2022/07/15 01:59:52;;;;;;;5.72;2.40;;;;;;;;;;5091067;28;20050;-71
2022/07/15 02:02:18;;;;;;;4.88;2.33;;;;;;;;;;5090503;28;20516;-71
2022/07/15 02:04:44;;;;;;;12.05;3.17;;;;;;;;;;5090866;28;20032;-71
2022/07/15 02:07:10;;;;;;;12.25;3.97;;;;;;;;;;5090878;28;20059;-71
2022/07/15 02:09:36;;;;;;;8.75;3.25;;;;;;;;;;5089167;28;20031;-71
2022/07/15 02:12:03;;;;;;;10.70;3.40;;;;;;;;;;5090754;28;20029;-71
2022/07/15 02:14:29;;;;;;;9.15;3.22;;;;;;;;;;5090687;28;20031;-71
2022/07/15 02:16:55;;;;;;;7.03;2.83;;;;;;;;;;5088945;28;20032;-71
2022/07/15 02:19:21;;;;;;;6.93;2.90;;;;;;;;;;5090633;28;20484;-71
2022/07/15 02:24:39;;;;;;;7.10;2.47;;;;;;;;;;5111438;27;20772;-71
2022/07/15 02:27:05;;;;;;;8.05;3.42;;;;;;;;;;5111392;28;20036;-71
2022/07/15 02:31:58;;;;;;;8.10;3.22;;;;;;;;;;5111866;27;20426;-71
2022/07/15 02:37:25;;;;;;;8.18;3.55;;;;;;;;;;5111306;27;20415;-72
2022/07/15 02:39:51;;;;;;;8.20;3.20;;;;;;;;;;5110034;28;20111;-71
2022/07/15 02:54:47;;;;;;;8.18;2.70;;;;;;;;;;5111451;27;20393;-72
2022/07/15 02:57:13;;;;;;;6.38;2.67;;;;;;;;;;5111393;28;20031;-71
2022/07/15 02:59:39;;;;;;;6.28;3.03;;;;;;;;;;5110930;28;20062;-71
2022/07/15 03:02:05;;;;;;;6.32;2.50;;;;;;;;;;5111254;28;20464;-71
2022/07/15 03:04:32;;;;;;;6.38;2.90;;;;;;;;;;5111073;28;20099;-72
2022/07/15 03:06:58;;;;;;;9.85;2.88;;;;;;;;;;5111153;28;20460;-71
2022/07/15 03:09:24;;;;;;;6.72;2.67;;;;;;;;;;5111113;28;20031;-71
2022/07/15 03:11:50;;;;;;;5.88;2.67;;;;;;;;;;5110686;28;20058;-71
2022/07/15 03:14:16;;;;;;;6.32;2.90;;;;;;;;;;5110957;28;20032;-71
2022/07/15 03:19:43;;;;;;;5.22;2.35;;;;;;;;;;5111410;27;20397;-71
2022/07/15 03:22:09;;;;;;;5.88;2.35;;;;;;;;;;5111347;28;20024;-71
2022/07/15 03:24:35;;;;;;;4.88;2.22;;;;;;;;;;5111314;28;20047;-71
2022/07/15 03:27:01;;;;;;;6.75;2.90;;;;;;;;;;5111002;28;20476;-71
2022/07/15 03:31:01;;;;;;;8.13;2.28;;;;;;;;;;5111394;27;20757;-71
2022/07/15 03:37:44;;;;;;;10.65;2.88;;;;;;;;;;5112268;27;20385;-71
2022/07/15 03:40:10;;;;;;;6.70;2.78;;;;;;;;;;5111002;28;20024;-71
2022/07/15 03:49:21;;;;;;;10.35;3.63;;;;;;;;;;5112124;27;20726;-71
2022/07/15 03:52:42;;;;;;;7.55;3.17;;;;;;;;;;5112190;27;20419;-71
2022/07/15 03:55:09;;;;;;;9.40;3.50;;;;;;;;;;5110968;28;20036;-71
2022/07/15 03:57:35;;;;;;;6.72;2.50;;;;;;;;;;5111294;28;20410;-71
2022/07/15 04:01:55;;;;;;;7.55;3.05;;;;;;;;;;5111322;27;20430;-73
2022/07/15 04:04:21;;;;;;;11.45;5.00;;;;;;;;;;5111397;28;20059;-72
2022/07/15 04:13:01;;;;;;;7.28;3.28;;;;;;;;;;5111380;27;20416;-71
2022/07/15 04:17:24;;;;;;;6.32;2.50;;;;;;;;;;5111931;27;20521;-71
2022/07/15 04:19:50;;;;;;;7.88;2.53;;;;;;;;;;5110121;28;20035;-71
2022/07/15 04:22:16;;;;;;;5.85;2.80;;;;;;;;;;5109639;28;20476;-72
2022/07/15 04:25:32;;;;;;;5.60;2.30;;;;;;;;;;5111693;27;20392;-71
2022/07/15 04:27:58;;;;;;;6.07;3.03;;;;;;;;;;5111261;28;20034;-71
2022/07/15 04:32:12;;;;;;;4.97;2.30;;;;;;;;;;5071065;28;20421;-71
2022/07/15 04:35:08;;;;;;;6.43;2.70;;;;;;;;;;5112194;27;20400;-72
2022/07/15 04:37:35;;;;;;;4.75;2.03;;;;;;;;;;5111383;28;20055;-71
2022/07/15 04:40:01;;;;;;;7.25;2.20;;;;;;;;;;5111325;28;20031;-72
2022/07/15 04:43:08;;;;;;;5.28;2.45;;;;;;;;;;5111069;27;20431;-71
2022/07/15 04:45:50;;;;;;;4.22;2.15;;;;;;;;;;5111688;27;20381;-71
2022/07/15 04:51:01;;;;;;;3.97;1.80;;;;;;;;;;5110892;28;20093;-71
2022/07/15 04:53:27;;;;;;;5.57;2.47;;;;;;;;;;5111501;28;20103;-71
2022/07/15 04:58:35;;;;;;;4.43;1.98;;;;;;;;;;5111204;27;20392;-71
2022/07/15 05:01:01;;;;;;;3.53;1.85;;;;;;;;;;5127164;28;20089;-79
2022/07/15 05:07:04;;;;;;;6.18;2.30;;;;;;;;;;5111570;27;20748;-72
2022/07/15 05:09:30;;;;;;;5.68;2.17;;;;;;;;;;5111310;28;20024;-73
2022/07/15 05:11:56;;;;;;;4.63;1.90;;;;;;;;;;5112121;28;20024;-78
2022/07/15 05:16:03;;;;;;;3.75;1.90;;;;;;;;;;5111389;27;20915;-73
2022/07/15 05:19:29;;;;;;;4.93;2.45;;;;;;;;;;5111086;27;20388;-74
2022/07/15 05:23:33;;;;;;;4.22;2.05;;;;;;;;;;5111722;27;20446;-74
2022/07/15 05:25:59;;;;;;;5.45;1.90;;;;;;;;;;5109637;28;20106;-74
2022/07/15 05:30:43;;;;;;;5.82;2.30;;;;;;;;;;5110635;27;20972;-73
2022/07/15 05:33:09;;;;;;;6.03;1.67;;;;;;;;;;5143942;27;20084;-76
2022/07/15 05:35:36;;;;;;;6.72;2.00;;;;;;;;;;5127924;28;20023;-79
2022/07/15 05:38:02;;;;;;;5.85;1.98;;;;;;;;;;5112430;28;20091;-80
2022/07/15 05:40:29;;;;;;;5.05;1.90;;;;;;;;;;5109923;28;20028;-78
2022/07/15 05:45:25;;;;;;;3.63;1.90;;;;;;;;;;5110201;27;20996;-76
2022/07/15 05:47:52;;;;;;;3.63;1.90;;;;;;;;;;5110546;28;20020;-77
2022/07/15 05:50:19;;;;;;;4.07;1.45;;;;;;;;;;5108729;28;20042;-78
2022/07/15 05:54:33;;;;;;;8.73;2.83;;;;;;;;;;5172549;27;20313;-77
2022/07/15 05:57:00;;;;;;;5.13;2.58;;;;;;;;;;5133831;27;20544;-78
2022/07/15 06:00:55;;;;;;;5.10;1.92;;;;;;;;;;5110524;27;20393;-78
2022/07/15 06:03:21;;;;;;;3.92;1.80;;;;;;;;;;5109570;28;20030;-80
2022/07/15 06:06:34;;;;;;;4.82;2.00;;;;;;;;;;5111400;27;20454;-79
2022/07/15 06:09:00;;;;;;;4.28;2.00;;;;;;;;;;5109935;28;20024;-79
2022/07/15 06:11:26;;;;;;;6.00;2.85;;;;;;;;;;5110285;28;20030;-79
2022/07/15 06:13:52;;;;;;;5.38;2.40;;;;;;;;;;5111156;28;20054;-78
2022/07/15 06:21:03;;;;;;;5.30;2.00;;;;;;;;;;5111226;27;20439;-75
2022/07/15 06:25:56;;;;;;;4.95;1.88;;;;;;;;;;5078298;27;20428;-78
2022/07/15 06:28:23;;;;;;;4.85;2.40;;;;;;;;;;5087638;28;20024;-77
2022/07/15 06:30:49;;;;;;;8.40;2.50;;;;;;;;;;5086190;28;20377;-78
2022/07/15 06:33:15;;;;;;;4.88;2.42;;;;;;;;;;5087199;28;20063;-76
2022/07/15 06:35:41;;;;;;;4.22;2.03;;;;;;;;;;5088512;28;20032;-82
2022/07/15 06:38:08;;;;;;;5.07;2.35;;;;;;;;;;5088335;28;20115;-78
2022/07/15 06:42:47;;;;;;;5.00;2.08;;;;;;;;;;5109021;27;20418;-81
2022/07/15 06:45:14;;;;;;;5.93;1.90;;;;;;;;;;5109109;28;20035;-78
2022/07/15 06:47:41;;;;;;;3.58;1.88;;;;;;;;;;5108660;28;20023;-77
2022/07/15 06:50:07;;;;;;;4.68;1.90;;;;;;;;;;5107201;28;20013;-78
2022/07/15 06:52:33;;;;;;;3.78;1.88;;;;;;;;;;5108474;28;20024;-80
2022/07/15 06:55:00;;;;;;;3.97;1.80;;;;;;;;;;5108009;28;20054;-79
2022/07/15 06:57:47;;;;;;;3.47;1.95;;;;;;;;;;5047684;28;20781;-81
2022/07/15 07:00:15;;;;;;;7.53;2.53;;;;;;;;;;5048367;28;20085;-79
2022/07/15 07:02:41;;;;;;;5.53;2.25;;;;;;;;;;5046351;28;20039;-81
2022/07/15 07:05:08;;;;;;;5.00;2.40;;;;;;;;;;5045623;28;20550;-75
2022/07/15 07:07:35;;;;;;;6.20;1.92;;;;;;;;;;5047364;28;20021;-78
2022/07/15 07:10:01;;;;;;;6.10;2.15;;;;;;;;;;5046721;28;20021;-78
2022/07/15 07:12:27;;;;;;;5.45;1.90;;;;;;;;;;5048323;28;20492;-78
2022/07/15 07:18:30;;;;;;;5.03;1.85;;;;;;;;;;5089456;27;20422;-75
2022/07/15 07:21:29;;;;;;;4.90;1.70;;;;;;;;;;5068064;28;20822;-76
2022/07/15 07:23:55;;;;;;;4.95;1.73;;;;;;;;;;5068793;28;20017;-79
2022/07/15 07:26:21;;;;;;;4.53;1.90;;;;;;;;;;5068591;28;20052;-75
2022/07/15 07:30:22;;;;;;;3.20;1.95;;;;;;;;;;5111136;27;20458;-75
2022/07/15 07:33:56;;;;;;;4.55;1.88;;;;;;;;;;5109933;27;20389;-76
2022/07/15 07:36:48;;;;;;;4.75;2.20;;;;;;;;;;5070491;28;20403;-74
2022/07/15 07:39:42;;;;;;;5.47;2.40;;;;;;;;;;5109350;27;20389;-78
2022/07/15 07:42:08;;;;;;;3.92;1.77;;;;;;;;;;5110597;28;20039;-73
2022/07/15 07:44:50;;;;;;;4.25;1.80;;;;;;;;;;5108157;27;20408;-76
2022/07/15 07:47:16;;;;;;;6.38;2.25;;;;;;;;;;5108758;28;20027;-79
2022/07/15 07:49:44;;;;;;;6.60;2.63;;;;;;;;;;5109238;28;20357;-77
2022/07/15 07:53:58;;;;;;;4.90;1.90;;;;;;;;;;5162635;27;20111;-80
2022/07/15 07:56:24;;;;;;;3.40;1.38;;;;;;;;;;5112723;28;20041;-78
2022/07/15 07:58:50;;;;;;;7.22;1.95;;;;;;;;;;5131436;27;20018;-78
2022/07/15 08:01:17;;;;;;;3.58;1.77;;;;;;;;;;5128662;28;20030;-77
2022/07/15 08:03:44;;;;;;;4.45;1.92;;;;;;;;;;5110919;28;20106;-77
2022/07/15 08:07:25;;;;;;;4.65;2.13;;;;;;;;;;5099355;27;20426;-73
2022/07/15 08:09:51;;;;;;;2.95;1.40;;;;;;;;;;5098101;28;20033;-75
2022/07/15 08:12:17;;;;;;;4.43;1.60;;;;;;;;;;5123084;28;20020;-76
2022/07/15 08:14:43;;;;;;;2.97;1.48;;;;;;;;;;5118204;28;20074;-75
2022/07/15 08:17:10;;;;;;;3.58;1.67;;;;;;;;;;5114128;28;20050;-77
2022/07/15 08:19:36;;;;;;;2.20;1.27;;;;;;;;;;5089022;28;20020;-75
2022/07/15 08:25:06;;;;;;;7.30;1.60;;;;;;;;;;5087132;28;20043;-74
2022/07/15 08:27:32;;;;;;;3.88;1.40;;;;;;;;;;5097438;28;20032;-73
2022/07/15 08:29:58;;;;;;;4.57;1.55;;;;;;;;;;5091599;28;20032;-74
2022/07/15 08:32:24;;;;;;;3.72;1.85;;;;;;;;;;5069323;28;20029;-76
2022/07/15 08:34:50;;;;;;;6.63;1.90;;;;;;;;;;5069884;28;20067;-73
2022/07/15 08:37:16;;;;;;;3.75;1.58;;;;;;;;;;5084977;28;20079;-75
2022/07/15 08:39:43;;;;;;;3.30;1.50;;;;;;;;;;5083956;28;20447;-73
2022/07/15 08:42:09;;;;;;;4.15;1.45;;;;;;;;;;5066818;28;20492;-73
2022/07/15 08:44:36;;;;;;;3.05;1.52;;;;;;;;;;5081746;28;20035;-72
2022/07/15 08:47:03;;;;;;;2.42;1.38;;;;;;;;;;5086781;28;20485;-72
2022/07/15 08:49:31;;;;;;;4.00;1.50;;;;;;;;;;5101925;28;20020;-76
2022/07/15 08:51:58;;;;;;;4.22;1.80;;;;;;;;;;5106619;28;20028;-72
2022/07/15 08:54:25;;;;;;;3.83;1.30;;;;;;;;;;5122465;28;20471;-74
2022/07/15 08:56:51;;;;;;;2.53;1.30;;;;;;;;;;5106363;28;20429;-73
2022/07/15 08:59:17;;;;;;;4.30;1.33;;;;;;;;;;5111467;28;20032;-73
2022/07/15 09:01:45;;;;;;;3.28;1.40;;;;;;;;;;5105107;28;20422;-73
2022/07/15 09:04:12;;;;;;;2.67;1.25;;;;;;;;;;5103296;28;20036;-72
2022/07/15 09:06:39;;;;;;;3.10;1.45;;;;;;;;;;5089388;28;20052;-75
2022/07/15 09:09:24;;;;;;;2.78;1.40;;;;;;;;;;5109064;28;20028;-73
2022/07/15 09:11:55;;;;;;;4.78;1.60;;;;;;;;;;5088773;28;20047;-72
2022/07/15 09:14:22;;;;;;;5.33;1.60;;;;;;;;;;5095801;28;20069;-73
2022/07/15 09:16:48;;;;;;;2.60;1.40;;;;;;;;;;5105494;28;20484;-73
2022/07/15 09:19:16;;;;;;;2.33;1.17;;;;;;;;;;5091411;28;20092;-72
2022/07/15 09:21:42;;;;;;;1.92;1.23;;;;;;;;;;5081225;28;20024;-74
2022/07/15 09:24:19;;;;;;;4.28;1.50;;;;;;;;;;5078809;28;20740;-74
2022/07/15 09:26:45;;;;;;;2.15;1.20;;;;;;;;;;5092837;28;20048;-72
2022/07/15 09:35:01;;;;;;;3.03;1.20;;;;;;;;;;5096035;28;20030;-74
2022/07/15 09:37:28;;;;;;;2.13;1.20;;;;;;;;;;5092241;28;20028;-77
2022/07/15 09:39:58;;;;;;;2.50;1.42;;;;;;;;;;5093692;28;20430;-73
2022/07/15 09:42:24;;;;;;;2.33;1.00;;;;;;;;;;5095584;28;20027;-73
2022/07/15 09:44:51;;;;;;;3.03;1.30;;;;;;;;;;5094288;28;20105;-75
2022/07/15 09:47:18;;;;;;;3.40;1.27;;;;;;;;;;5063186;28;20033;-74
2022/07/15 09:49:45;;;;;;;3.58;1.20;;;;;;;;;;5054196;28;20412;-74
2022/07/15 09:52:14;;;;;;;2.47;1.15;;;;;;;;;;5055244;28;20029;-75
2022/07/15 09:54:41;;;;;;;3.10;1.40;;;;;;;;;;5060390;28;20017;-73
2022/07/15 09:57:10;;;;;;;2.13;1.15;;;;;;;;;;5072256;28;20028;-78
2022/07/15 09:59:36;;;;;;;1.67;1.17;;;;;;;;;;5087395;28;20044;-76
2022/07/15 10:02:03;;;;;;;2.55;1.10;;;;;;;;;;5073601;28;20025;-75
2022/07/15 10:04:30;;;;;;;2.72;1.20;;;;;;;;;;5073995;28;20088;-77
2022/07/15 10:07:04;;;;;;;1.90;1.20;;;;;;;;;;5073452;28;20048;-76
2022/07/15 10:09:32;;;;;;;3.90;1.10;;;;;;;;;;5090361;28;20032;-76
2022/07/15 10:12:03;;;;;;;2.30;1.30;;;;;;;;;;5074820;28;20342;-79
2022/07/15 10:14:44;;;;;;;4.57;1.52;;;;;;;;;;5072698;28;20071;-77
2022/07/15 10:17:28;;;;;;;2.83;1.20;;;;;;;;;;5088491;28;20020;-77
2022/07/15 10:20:27;;;;;;;3.08;1.20;;;;;;;;;;5072799;28;20033;-78
2022/07/15 10:22:53;;;;;;;3.85;1.00;;;;;;;;;;5060489;28;20044;-78
2022/07/15 10:25:22;;;;;;;3.28;1.23;;;;;;;;;;5072637;28;20071;-78
2022/07/15 10:27:54;;;;;;;2.55;1.23;;;;;;;;;;5072984;28;20418;-79
2022/07/15 10:30:21;;;;;;;3.40;1.13;;;;;;;;;;5089357;28;20481;-78
2022/07/15 10:33:06;;;;;;;6.97;1.25;;;;;;;;;;5090187;28;20492;-78
2022/07/15 10:35:36;;;;;;;1.55;0.90;;;;;;;;;;5073453;28;20158;-79
2022/07/15 10:38:21;;;;;;;1.80;0.90;;;;;;;;;;5074437;28;20029;-78
2022/07/15 10:41:01;;;;;;;0.95;0.80;;;;;;;;;;5074269;28;20077;-77
2022/07/15 10:43:44;;;;;;;2.25;0.90;;;;;;;;;;5073890;28;20410;-78
2022/07/15 10:46:16;;;;;;;1.42;0.90;;;;;;;;;;5072968;28;20036;-77
2022/07/15 10:48:45;;;;;;;0.80;0.70;;;;;;;;;;5073783;28;20049;-77
2022/07/15 10:51:11;;;;;;;2.55;0.85;;;;;;;;;;5074370;28;20469;-77
2022/07/15 10:53:44;;;;;;;3.20;0.90;;;;;;;;;;5073581;28;20522;-77
2022/07/15 10:56:29;;;;;;;2.65;0.88;;;;;;;;;;5073806;28;20029;-78
2022/07/15 10:59:07;;;;;;;2.88;0.90;;;;;;;;;;5074200;28;20098;-78
2022/07/15 11:01:33;;;;;;;2.35;0.77;;;;;;;;;;5074218;28;20091;-75
2022/07/15 11:04:18;;;;;;;4.70;0.80;;;;;;;;;;5073505;28;20020;-77
2022/07/15 11:07:06;;;;;;;2.03;1.02;;;;;;;;;;5073922;28;20048;-78
2022/07/15 11:09:48;;;;;;;1.15;0.82;;;;;;;;;;5074089;28;20354;-78
2022/07/15 11:12:38;;;;;;;0.77;0.77;;;;;;;;;;5073902;28;20135;-76
2022/07/15 11:15:06;;;;;;;1.23;0.70;;;;;;;;;;5069696;28;20056;-77
2022/07/15 11:17:32;;;;;;;1.60;0.70;;;;;;;;;;5073413;28;20021;-76
2022/07/15 11:20:01;;;;;;;3.13;0.75;;;;;;;;;;5073615;28;20021;-79
2022/07/15 11:22:28;;;;;;;1.63;1.00;;;;;;;;;;5073428;28;20550;-76
2022/07/15 11:24:55;;;;;;;1.60;0.70;;;;;;;;;;5073337;28;20523;-77
2022/07/15 11:27:22;;;;;;;0.57;0.50;;;;;;;;;;5073112;28;20040;-77
2022/07/15 11:30:02;;;;;;;1.75;0.60;;;;;;;;;;5072317;28;20020;-79
2022/07/15 11:32:28;;;;;;;2.10;0.80;;;;;;;;;;5071861;28;20056;-77
2022/07/15 11:34:56;;;;;;;1.45;0.70;;;;;;;;;;5073553;28;20028;-78
2022/07/15 11:37:30;;;;;;;1.20;0.70;;;;;;;;;;5073553;28;20117;-77
2022/07/15 11:40:07;;;;;;;1.95;0.68;;;;;;;;;;5072668;28;20032;-78
2022/07/15 11:45:32;;;;;;;2.33;0.80;;;;;;;;;;5072992;28;20433;-77
2022/07/15 11:47:58;;;;;;;1.55;0.70;;;;;;;;;;5073313;28;20025;-78
2022/07/15 11:50:25;;;;;;;1.75;0.93;;;;;;;;;;5073249;28;20052;-76
2022/07/15 11:52:55;;;;;;;0.88;0.60;;;;;;;;;;5072711;28;20092;-76
2022/07/15 11:55:21;;;;;;;1.27;0.75;;;;;;;;;;5072033;28;20028;-75
2022/07/15 11:57:48;;;;;;;3.17;0.90;;;;;;;;;;5072322;28;20067;-76
2022/07/15 12:00:15;;;;;;;1.25;0.52;;;;;;;;;;5071404;28;20032;-75
2022/07/15 12:02:41;;;;;;;3.60;0.70;;;;;;;;;;5071979;28;20439;-75
2022/07/15 12:05:08;;;;;;;1.95;0.68;;;;;;;;;;5072750;28;20025;-75
2022/07/15 12:07:40;;;;;;;1.65;0.90;;;;;;;;;;5072279;28;20499;-75
2022/07/15 12:10:07;;;;;;;2.03;1.00;;;;;;;;;;5072135;28;20020;-77
2022/07/15 12:12:33;;;;;;;2.55;0.85;;;;;;;;;;5071577;28;20031;-77
2022/07/15 12:15:00;;;;;;;1.00;0.77;;;;;;;;;;5072612;28;20043;-76
2022/07/15 12:17:26;;;;;;;1.25;0.55;;;;;;;;;;5072895;28;20146;-75
2022/07/15 12:19:58;;;;;;;3.85;0.88;;;;;;;;;;5071773;28;20024;-75
2022/07/15 12:25:18;;;;;;;1.35;0.50;;;;;;;;;;5080771;28;20035;-73
2022/07/15 12:27:44;;;;;;;2.13;0.63;;;;;;;;;;5088759;28;20031;-75
2022/07/15 12:30:10;;;;;;;2.28;0.50;;;;;;;;;;5072882;28;20025;-75
2022/07/15 12:32:37;;;;;;;2.08;0.52;;;;;;;;;;5088506;28;20115;-76
2022/07/15 12:35:04;;;;;;;1.95;0.63;;;;;;;;;;5088090;28;20066;-76
2022/07/15 12:37:30;;;;;;;3.22;0.73;;;;;;;;;;5081538;28;20017;-72
2022/07/15 12:39:58;;;;;;;2.15;0.70;;;;;;;;;;5073274;28;20037;-74
2022/07/15 12:42:25;;;;;;;1.92;0.63;;;;;;;;;;5088014;28;20035;-72
2022/07/15 12:45:09;;;;;;;1.83;0.50;;;;;;;;;;5071664;28;20024;-72
2022/07/15 12:47:35;;;;;;;1.08;0.57;;;;;;;;;;5070921;28;20036;-73
2022/07/15 12:50:01;;;;;;;1.42;0.70;;;;;;;;;;5070515;28;20052;-72
2022/07/15 12:52:35;;;;;;;1.58;0.60;;;;;;;;;;5071757;28;20492;-73
2022/07/15 12:55:13;;;;;;;2.25;0.65;;;;;;;;;;5074514;28;20380;-73
2022/07/15 12:57:39;;;;;;;1.60;0.60;;;;;;;;;;5090115;28;20044;-73
2022/07/15 13:00:11;;;;;;;1.60;0.57;;;;;;;;;;5086122;28;20046;-73
2022/07/15 13:02:57;;;;;;;1.85;0.95;;;;;;;;;;5095451;28;20050;-73
2022/07/15 13:05:23;;;;;;;2.42;0.60;;;;;;;;;;5096364;28;20047;-73
2022/07/15 13:07:49;;;;;;;1.63;0.60;;;;;;;;;;5096432;28;20161;-72
2022/07/15 13:10:15;;;;;;;1.48;0.75;;;;;;;;;;5111954;28;20024;-72
2022/07/15 13:12:41;;;;;;;1.75;0.70;;;;;;;;;;5096594;28;20103;-72
2022/07/15 13:15:08;;;;;;;1.77;0.63;;;;;;;;;;5096775;28;20031;-73
2022/07/15 13:17:35;;;;;;;1.83;0.70;;;;;;;;;;5095875;28;20350;-72
2022/07/15 13:20:02;;;;;;;1.38;0.80;;;;;;;;;;5094263;28;20040;-73
2022/07/15 13:22:29;;;;;;;1.33;0.68;;;;;;;;;;5094235;28;20099;-72
2022/07/15 13:24:55;;;;;;;4.15;0.65;;;;;;;;;;5109592;28;20044;-72
2022/07/15 13:27:21;;;;;;;1.23;0.70;;;;;;;;;;5094223;28;20032;-73
2022/07/15 13:29:47;;;;;;;1.63;0.70;;;;;;;;;;5109739;28;20020;-73
2022/07/15 13:32:13;;;;;;;1.70;0.73;;;;;;;;;;5093727;28;20032;-73
2022/07/15 13:34:40;;;;;;;1.52;0.60;;;;;;;;;;5095486;28;20017;-73
2022/07/15 13:37:06;;;;;;;1.75;0.63;;;;;;;;;;5096097;28;20024;-73
2022/07/15 13:39:32;;;;;;;3.50;0.70;;;;;;;;;;5095752;28;20391;-73
2022/07/15 13:41:58;;;;;;;1.77;0.70;;;;;;;;;;5096032;28;20027;-73
2022/07/15 13:44:24;;;;;;;3.42;0.75;;;;;;;;;;5095647;28;20484;-72
2022/07/15 13:46:50;;;;;;;1.25;0.77;;;;;;;;;;5111506;28;20040;-72
2022/07/15 13:49:16;;;;;;;1.00;0.60;;;;;;;;;;5095865;28;20020;-73
2022/07/15 13:51:43;;;;;;;2.22;1.00;;;;;;;;;;5095517;28;20024;-72
2022/07/15 13:54:09;;;;;;;1.05;0.50;;;;;;;;;;5095821;28;20473;-73
2022/07/15 13:56:36;;;;;;;1.95;0.60;;;;;;;;;;5095819;28;20488;-72
2022/07/15 13:59:03;;;;;;;2.10;0.55;;;;;;;;;;5095396;28;20028;-72
2022/07/15 14:01:31;;;;;;;2.60;0.93;;;;;;;;;;5095685;28;20020;-72
2022/07/15 14:03:57;;;;;;;3.17;0.90;;;;;;;;;;5095462;28;20020;-72
2022/07/15 14:06:24;;;;;;;1.08;0.80;;;;;;;;;;5094999;28;20496;-72
2022/07/15 14:08:50;;;;;;;1.92;0.68;;;;;;;;;;5095529;28;20046;-71
2022/07/15 14:11:17;;;;;;;2.20;0.70;;;;;;;;;;5095513;28;20043;-71
2022/07/15 14:13:44;;;;;;;1.17;0.57;;;;;;;;;;5095144;28;20165;-72
2022/07/15 14:16:10;;;;;;;1.58;1.00;;;;;;;;;;5095251;28;20024;-72
2022/07/15 14:18:48;;;;;;;2.20;0.73;;;;;;;;;;5111015;28;20048;-71
2022/07/15 14:21:15;;;;;;;1.77;0.70;;;;;;;;;;5095069;28;20048;-71
2022/07/15 14:23:41;;;;;;;0.73;0.63;;;;;;;;;;5095287;28;20020;-71
2022/07/15 14:26:08;;;;;;;1.27;0.70;;;;;;;;;;5094977;28;20035;-72
2022/07/15 14:28:34;;;;;;;1.95;0.70;;;;;;;;;;5110510;28;20440;-71
2022/07/15 14:31:00;;;;;;;0.98;0.60;;;;;;;;;;5095324;28;20031;-72
2022/07/15 14:33:27;;;;;;;1.77;0.60;;;;;;;;;;5095105;28;20385;-73
2022/07/15 14:35:53;;;;;;;0.90;0.50;;;;;;;;;;5094648;28;20051;-73
2022/07/15 14:38:19;;;;;;;1.15;0.50;;;;;;;;;;5094853;28;20035;-73
2022/07/15 14:40:45;;;;;;;3.78;0.82;;;;;;;;;;5094664;28;20028;-72
2022/07/15 14:43:11;;;;;;;0.82;0.60;;;;;;;;;;5094736;28;20112;-72
2022/07/15 14:45:37;;;;;;;1.40;0.73;;;;;;;;;;5094782;28;20111;-73
2022/07/15 14:48:04;;;;;;;1.08;0.68;;;;;;;;;;5094300;28;20481;-72
2022/07/15 14:50:32;;;;;;;0.88;0.57;;;;;;;;;;5076194;28;20024;-72
2022/07/15 14:53:05;;;;;;;2.95;0.80;;;;;;;;;;5072992;28;20020;-73
2022/07/15 14:55:32;;;;;;;0.70;0.60;;;;;;;;;;5088190;28;20025;-73
2022/07/15 14:57:58;;;;;;;0.90;0.65;;;;;;;;;;5073032;28;20036;-73
2022/07/15 15:00:24;;;;;;;1.20;0.68;;;;;;;;;;5073105;28;20082;-74
2022/07/15 15:02:51;;;;;;;2.53;0.75;;;;;;;;;;5072710;28;20027;-74
2022/07/15 15:05:17;;;;;;;1.90;0.60;;;;;;;;;;5072558;28;20505;-75
2022/07/15 15:07:43;;;;;;;0.93;0.60;;;;;;;;;;5089987;28;20028;-73
2022/07/15 15:10:10;;;;;;;1.98;0.70;;;;;;;;;;5082243;28;20653;-74
2022/07/15 15:12:36;;;;;;;5.68;0.60;;;;;;;;;;5093137;28;20097;-74
2022/07/15 15:15:02;;;;;;;0.93;0.50;;;;;;;;;;5093671;28;20024;-74
2022/07/15 15:17:29;;;;;;;1.45;0.80;;;;;;;;;;5093944;28;20016;-74
2022/07/15 15:19:55;;;;;;;2.40;0.80;;;;;;;;;;5109856;28;20059;-73
2022/07/15 15:22:21;;;;;;;2.72;1.17;;;;;;;;;;5090688;28;20052;-74
2022/07/15 15:24:47;;;;;;;2.25;0.88;;;;;;;;;;5109215;28;20032;-73
2022/07/15 15:27:14;;;;;;;2.38;0.80;;;;;;;;;;5109654;28;20369;-73
2022/07/15 15:29:41;;;;;;;3.03;1.08;;;;;;;;;;5092842;28;20040;-74
2022/07/15 15:32:11;;;;;;;0.60;0.60;;;;;;;;;;5091504;28;20024;-74
2022/07/15 15:34:39;;;;;;;2.47;0.85;;;;;;;;;;5091878;28;20019;-74
2022/07/15 15:37:05;;;;;;;2.92;0.90;;;;;;;;;;5091427;28;20028;-74
2022/07/15 15:39:31;;;;;;;1.63;0.90;;;;;;;;;;5091862;28;20016;-74
2022/07/15 15:41:58;;;;;;;1.25;0.63;;;;;;;;;;5091759;28;20076;-74
2022/07/15 15:44:24;;;;;;;2.55;1.00;;;;;;;;;;5091335;28;20020;-74
2022/07/15 15:46:50;;;;;;;1.08;0.50;;;;;;;;;;5107311;28;20043;-74
2022/07/15 15:49:16;;;;;;;1.48;0.93;;;;;;;;;;5091659;28;20149;-74
2022/07/15 15:51:44;;;;;;;1.17;0.80;;;;;;;;;;5091391;28;20016;-74
2022/07/15 15:54:10;;;;;;;0.85;0.77;;;;;;;;;;5091653;28;20012;-75
2022/07/15 15:56:36;;;;;;;1.50;0.82;;;;;;;;;;5093537;28;20469;-73
2022/07/15 15:59:03;;;;;;;1.00;0.70;;;;;;;;;;5093326;28;20069;-73
2022/07/15 16:01:29;;;;;;;1.08;0.55;;;;;;;;;;5093615;28;20051;-73
2022/07/15 16:03:55;;;;;;;0.85;0.60;;;;;;;;;;5093558;28;20024;-73
2022/07/15 16:06:21;;;;;;;3.15;0.80;;;;;;;;;;5092892;28;20044;-73
2022/07/15 16:08:48;;;;;;;5.82;1.95;;;;;;;;;;5093557;28;20461;-72
2022/07/15 16:11:14;;;;;;;1.90;0.95;;;;;;;;;;5093366;28;20490;-73
2022/07/15 16:13:41;;;;;;;2.10;0.90;;;;;;;;;;5093230;28;20023;-73
2022/07/15 16:16:07;;;;;;;2.85;0.85;;;;;;;;;;5093484;28;20059;-73
2022/07/15 16:18:33;;;;;;;1.83;0.93;;;;;;;;;;5109222;28;20028;-72
2022/07/15 16:20:59;;;;;;;2.50;0.90;;;;;;;;;;5093112;28;20031;-72
2022/07/15 16:23:25;;;;;;;2.03;0.90;;;;;;;;;;5093476;28;20050;-72
2022/07/15 16:25:51;;;;;;;3.63;1.10;;;;;;;;;;5108987;28;20062;-72
2022/07/15 16:28:18;;;;;;;2.63;1.00;;;;;;;;;;5111108;28;20499;-75
2022/07/15 16:30:45;;;;;;;2.22;0.95;;;;;;;;;;5097450;28;20392;-72
2022/07/15 16:33:11;;;;;;;2.72;1.20;;;;;;;;;;5096930;28;20470;-74
2022/07/15 16:35:38;;;;;;;2.42;1.00;;;;;;;;;;5097426;28;20383;-75
2022/07/15 16:38:04;;;;;;;4.63;0.90;;;;;;;;;;5097302;28;20101;-73
2022/07/15 16:40:30;;;;;;;1.67;0.90;;;;;;;;;;5096845;28;20383;-73
2022/07/15 16:42:57;;;;;;;3.22;0.98;;;;;;;;;;5097572;28;20372;-73
2022/07/15 16:45:23;;;;;;;1.48;1.05;;;;;;;;;;5097054;28;20031;-73
2022/07/15 16:47:49;;;;;;;2.38;1.30;;;;;;;;;;5096815;28;20031;-73
2022/07/15 16:50:16;;;;;;;1.67;1.10;;;;;;;;;;5097191;28;20035;-72
2022/07/15 16:52:43;;;;;;;1.42;0.90;;;;;;;;;;5097310;28;20053;-73
2022/07/15 16:55:09;;;;;;;3.75;1.30;;;;;;;;;;5096563;28;20073;-73
2022/07/15 16:57:35;;;;;;;2.13;1.10;;;;;;;;;;5096855;28;20476;-73
2022/07/15 17:00:02;;;;;;;2.67;1.33;;;;;;;;;;5112480;28;20024;-74
2022/07/15 17:02:28;;;;;;;3.13;1.08;;;;;;;;;;5096582;28;20468;-73
2022/07/15 17:04:54;;;;;;;2.33;1.15;;;;;;;;;;5096788;28;20516;-73
2022/07/15 17:07:21;;;;;;;2.58;1.27;;;;;;;;;;5096445;28;20055;-73
2022/07/15 17:09:47;;;;;;;3.22;1.42;;;;;;;;;;5096262;28;20024;-73
2022/07/15 17:12:13;;;;;;;2.88;1.38;;;;;;;;;;5112380;28;20068;-73
2022/07/15 17:14:39;;;;;;;2.20;1.23;;;;;;;;;;5096622;28;20016;-72